This is the latest recevied weather packets stored in our database for station/object K1WJY. If no packets are shown the sender has not sent any weather packets the latest 10 day(s).
| Time | Temp. | Humidity | Pressure | Rain* | Wind** | Luminosity | Snow |
|---|---|---|---|---|---|---|---|
| 1777916393 | 11.67° C | 77% | 1008.3 hPa | 0 mm | - | 355 W/m² | - |
| 1777916090 | 11.67° C | 74% | 1008.2 hPa | 0 mm | - | 280 W/m² | - |
| 1777915787 | 11.67° C | 73% | 1008.3 hPa | 0 mm | - | 242 W/m² | - |
| 1777915483 | 12.22° C | 71% | 1008 hPa | 0 mm | - | 179 W/m² | - |
| 1777915180 | 12.22° C | 74% | 1007.6 hPa | 0 mm | - | 163 W/m² | - |
| 1777914877 | 12.78° C | 69% | 1007.5 hPa | 0 mm | - | 182 W/m² | - |
| 1777914574 | 12.78° C | 67% | 1007.6 hPa | 0 mm | - | 112 W/m² | - |
| 1777914270 | 12.78° C | 67% | 1007.5 hPa | 0 mm | - | 106 W/m² | - |
| 1777913967 | 13.33° C | 64% | 1007.7 hPa | 0 mm | - | 163 W/m² | - |
| 1777913664 | 13.89° C | 61% | 1007.4 hPa | 0 mm | - | 314 W/m² | - |
| 1777913361 | 13.89° C | 61% | 1007.3 hPa | 0 mm | - | 388 W/m² | - |
| 1777913057 | 13.89° C | 59% | 1007.3 hPa | 0 mm | - | 413 W/m² | - |
| 1777912753 | 13.89° C | 59% | 1007.5 hPa | 0 mm | - | 416 W/m² | - |
| 1777912449 | 13.89° C | 58% | 1007.4 hPa | 0 mm | - | 550 W/m² | - |
| 1777912146 | 13.33° C | 57% | 1007.3 hPa | 0 mm | - | 402 W/m² | - |
| 1777911841 | 12.78° C | 61% | 1007.5 hPa | 0 mm | - | 769 W/m² | - |
| 1777911539 | 12.78° C | 60% | 1007.7 hPa | 0 mm | - | 350 W/m² | - |
| 1777911235 | 12.78° C | 59% | 1007.7 hPa | 0 mm | - | 333 W/m² | - |
| 1777910932 | 13.33° C | 58% | 1007.8 hPa | 0 mm | - | 324 W/m² | - |
| 1777910629 | 13.89° C | 57% | 1007.9 hPa | 0 mm | - | 525 W/m² | - |
| 1777910326 | 13.89° C | 55% | 1007.8 hPa | 0 mm | - | 397 W/m² | - |
| 1777910023 | 13.33° C | 55% | 1008 hPa | 0 mm | - | 703 W/m² | - |
| 1777909720 | 13.89° C | 52% | 1008.1 hPa | 0 mm | - | 443 W/m² | - |
| 1777909417 | 13.89° C | 53% | 1008 hPa | 0 mm | - | 351 W/m² | - |
| 1777909115 | 13.89° C | 52% | 1008.1 hPa | 0 mm | - | 507 W/m² | - |
* Rain latest hour (hover to see other rain measurements)
** Current wind speed in m/s (hover to see current wind gust speed)